Time;durP1;ratioP1;P1;durP2;ratioP2;P2;SDS_P1;SDS_P2;PMS_P1;PMS_P2;Temp;Humidity;BMP_temperature;BMP_pressure;BME280_temperature;BME280_humidity;BME280_pressure;Samples;Min_cycle;Max_cycle;Signal;HPM_P1;HPM_P2
2022/09/28 00:04:37;;;;;;;2.60;0.82;;;;;;;18.61;62.42;95065.19;10504419;28;20311;-31
2022/09/28 00:09:38;;;;;;;3.20;0.90;;;;;;;18.58;62.54;95067.78;10507060;28;20044;-30
2022/09/28 00:14:39;;;;;;;1.25;0.90;;;;;;;18.55;62.67;95059.44;10508331;28;20033;-31
2022/09/28 00:19:39;;;;;;;1.85;0.82;;;;;;;18.52;63.00;95045.16;10506348;28;20036;-31
2022/09/28 00:24:40;;;;;;;3.90;1.10;;;;;;;18.50;62.76;95025.78;10501666;28;20111;-32
2022/09/28 00:29:40;;;;;;;1.42;0.98;;;;;;;18.53;62.47;95020.63;10513226;28;20063;-30
2022/09/28 00:34:44;;;;;;;1.98;0.80;;;;;;;18.48;62.67;95013.16;10507854;28;20143;-31
2022/09/28 00:39:45;;;;;;;2.20;0.90;;;;;;;18.52;62.58;95024.03;10507593;28;20495;-31
2022/09/28 00:44:53;;;;;;;2.67;1.10;;;;;;;18.65;63.27;95015.22;10502348;28;20098;-31
2022/09/28 00:50:21;;;;;;;4.15;1.00;;;;;;;18.70;62.67;95008.31;10507570;28;20116;-31
2022/09/28 00:55:30;;;;;;;1.60;0.88;;;;;;;18.66;62.28;95001.69;10506407;28;20040;-31
2022/09/28 01:00:31;;;;;;;1.30;0.88;;;;;;;18.64;62.25;94988.22;10505349;28;20577;-31
2022/09/28 01:05:33;;;;;;;1.20;0.60;;;;;;;18.60;62.35;94966.38;10504309;28;20042;-38
2022/09/28 01:10:33;;;;;;;1.58;0.90;;;;;;;18.52;62.74;94955.63;10504752;28;20024;-31
2022/09/28 01:15:45;;;;;;;1.65;0.80;;;;;;;18.51;62.64;94939.56;10505528;28;20032;-30
2022/09/28 01:21:06;;;;;;;3.85;1.02;;;;;;;18.48;62.40;94931.22;10502644;28;20035;-31
2022/09/28 01:26:41;;;;;;;2.72;0.75;;;;;;;18.49;62.59;94912.66;10506014;28;20032;-30
2022/09/28 01:31:47;;;;;;;2.10;0.80;;;;;;;18.51;62.64;94901.56;10506524;28;20533;-31
2022/09/28 01:36:52;;;;;;;0.95;0.52;;;;;;;18.51;62.47;94893.16;10508909;28;20035;-30
2022/09/28 01:41:58;;;;;;;2.83;0.77;;;;;;;18.49;62.61;94893.19;10511936;28;20028;-31
2022/09/28 01:47:03;;;;;;;2.83;0.88;;;;;;;18.63;63.11;94887.72;10506148;28;20056;-30
2022/09/28 01:52:13;;;;;;;2.00;0.80;;;;;;;18.64;63.00;94861.50;10510956;28;20028;-31
2022/09/28 01:57:20;;;;;;;0.95;0.63;;;;;;;18.66;62.39;94859.75;10503386;28;20081;-31
2022/09/28 02:02:28;;;;;;;1.45;0.70;;;;;;;18.59;62.17;94851.50;10505194;28;20491;-31
2022/09/28 02:07:37;;;;;;;1.80;0.80;;;;;;;18.54;62.45;94840.69;10510431;28;20543;-30
2022/09/28 02:12:43;;;;;;;1.23;0.80;;;;;;;18.54;62.38;94845.75;10505326;28;20032;-31
2022/09/28 02:17:45;;;;;;;2.25;1.00;;;;;;;18.51;62.58;94845.00;10501635;28;20090;-31
2022/09/28 02:22:50;;;;;;;1.42;0.85;;;;;;;18.48;62.50;94845.91;10507731;28;20115;-30
2022/09/28 02:28:04;;;;;;;1.40;0.70;;;;;;;18.49;62.19;94842.50;10503138;28;20038;-30
2022/09/28 02:33:12;;;;;;;2.05;1.08;;;;;;;18.48;62.50;94840.00;10502152;28;20024;-32
2022/09/28 02:38:14;;;;;;;1.45;0.77;;;;;;;18.48;62.73;94832.41;10503330;28;20060;-30
2022/09/28 02:43:31;;;;;;;1.42;0.73;;;;;;;18.48;62.35;94827.34;10500351;28;20024;-31
2022/09/28 02:49:03;;;;;;;3.58;1.05;;;;;;;18.60;62.77;94804.19;10510416;28;20495;-31
2022/09/28 02:54:17;;;;;;;1.67;1.02;;;;;;;18.64;62.86;94790.53;10517973;28;20032;-31
2022/09/28 02:59:41;;;;;;;2.15;1.02;;;;;;;18.63;62.02;94791.41;10512366;28;20431;-31
2022/09/28 03:05:02;;;;;;;2.45;0.60;;;;;;;18.57;62.23;94804.28;10507917;28;20128;-30
2022/09/28 03:10:18;;;;;;;1.10;0.73;;;;;;;18.54;62.24;94790.00;10509846;28;20114;-30
2022/09/28 03:15:25;;;;;;;1.25;0.70;;;;;;;18.49;62.37;94793.56;10511991;28;20110;-31
2022/09/28 03:20:29;;;;;;;1.15;0.60;;;;;;;18.43;62.48;94781.88;10506106;28;20049;-31
2022/09/28 03:25:29;;;;;;;1.05;0.60;;;;;;;18.50;62.32;94792.69;10506896;28;20036;-32
2022/09/28 03:30:30;;;;;;;1.08;0.70;;;;;;;18.49;62.14;94796.09;10508973;28;20028;-32
2022/09/28 03:35:31;;;;;;;1.98;0.65;;;;;;;18.47;62.44;94796.13;10508710;28;20051;-31
2022/09/28 03:40:32;;;;;;;2.00;0.60;;;;;;;18.48;62.37;94789.34;10510280;28;20033;-31
2022/09/28 03:45:32;;;;;;;1.58;0.70;;;;;;;18.44;62.33;94767.53;10505906;28;20286;-31
2022/09/28 03:50:32;;;;;;;1.50;0.67;;;;;;;18.61;62.70;94760.22;10509307;28;20020;-31
2022/09/28 03:55:33;;;;;;;1.97;0.47;;;;;;;18.65;62.62;94749.94;10521052;28;20086;-31
2022/09/28 04:00:33;;;;;;;1.15;0.68;;;;;;;18.61;62.26;94705.31;10508506;28;20290;-31
2022/09/28 04:05:34;;;;;;;2.80;0.53;;;;;;;18.59;61.89;94711.31;10496355;28;20025;-30
2022/09/28 04:10:34;;;;;;;1.15;0.60;;;;;;;18.54;62.18;94713.13;10516870;28;20077;-30
2022/09/28 04:15:36;;;;;;;2.87;0.80;;;;;;;18.56;62.30;94726.59;10501440;28;20038;-31
2022/09/28 04:20:39;;;;;;;1.67;1.33;;;;;;;18.56;62.25;94726.59;10505007;28;20063;-30
2022/09/28 04:25:51;;;;;;;0.95;0.70;;;;;;;18.56;62.36;94726.59;10514450;28;20116;-30
2022/09/28 04:30:51;;;;;;;;;;;;;;;18.55;61.89;94740.13;10508744;28;20117;-30
2022/09/28 04:35:52;;;;;;;2.33;0.70;;;;;;;18.52;62.03;94745.31;10504583;28;19912;-31
2022/09/28 04:40:52;;;;;;;1.20;0.70;;;;;;;18.57;61.87;94734.16;10501628;28;20115;-30
2022/09/28 04:46:00;;;;;;;2.67;0.70;;;;;;;18.60;61.41;94738.28;10510522;28;20089;-31
2022/09/28 04:51:07;;;;;;;7.85;0.57;;;;;;;18.58;62.59;94733.25;10503670;28;20285;-31
2022/09/28 04:56:10;;;;;;;2.07;0.63;;;;;;;18.64;61.25;94720.41;10502919;28;20025;-30
2022/09/28 05:01:15;;;;;;;3.03;0.85;;;;;;;18.54;60.69;94724.13;10501735;28;20297;-31
2022/09/28 05:06:44;;;;;;;3.58;0.75;;;;;;;18.53;60.99;94747.81;10440617;28;20036;-30
2022/09/28 05:11:48;;;;;;;5.15;0.70;;;;;;;18.59;61.10;94756.91;10513578;28;20044;-31
2022/09/28 05:16:51;;;;;;;3.10;0.60;;;;;;;18.59;61.65;94756.91;10498953;28;20439;-31
2022/09/28 05:22:05;;;;;;;5.07;0.90;;;;;;;18.56;61.53;94757.84;10507000;28;20052;-31
2022/09/28 05:27:15;;;;;;;12.02;1.40;;;;;;;18.62;61.41;94766.94;10502744;28;20055;-30
2022/09/28 05:32:18;;;;;;;1.77;0.60;;;;;;;18.44;60.34;94764.97;10497927;28;20028;-31
2022/09/28 05:37:39;;;;;;;6.40;0.98;;;;;;;18.42;61.87;94764.22;10496606;28;20577;-32
2022/09/28 05:42:40;;;;;;;5.75;1.33;;;;;;;18.40;61.98;94758.38;10505790;28;20040;-30
2022/09/28 05:47:44;;;;;;;7.18;0.98;;;;;;;18.43;62.04;94755.72;10511462;28;20036;-30
2022/09/28 05:53:16;;;;;;;4.97;1.02;;;;;;;18.53;62.76;94762.16;10500280;28;20028;-30
2022/09/28 05:58:16;;;;;;;6.55;1.08;;;;;;;18.41;62.67;94732.16;10506103;28;20047;-30
2022/09/28 06:03:17;;;;;;;6.63;0.80;;;;;;;18.48;61.68;94764.00;10509147;28;20419;-31
2022/09/28 06:08:18;;;;;;;7.68;1.40;;;;;;;18.57;62.13;94773.88;10501069;28;20339;-31
2022/09/28 06:13:23;;;;;;;2.78;0.63;;;;;;;18.51;61.94;94779.13;10505357;28;20048;-30
2022/09/28 06:18:25;;;;;;;8.13;1.10;;;;;;;18.48;61.92;94774.13;10502249;28;20553;-31
2022/09/28 06:23:38;;;;;;;5.75;0.80;;;;;;;18.45;62.03;94786.91;10503239;28;20352;-31
2022/09/28 06:28:39;;;;;;;9.73;1.40;;;;;;;18.44;62.19;94795.38;10515680;28;20033;-31
2022/09/28 06:33:40;;;;;;;5.28;1.02;;;;;;;18.50;61.95;94797.75;10508503;28;20066;-31
2022/09/28 06:38:41;;;;;;;3.83;0.50;;;;;;;18.53;61.98;94812.84;10513021;28;20059;-31
2022/09/28 06:43:42;;;;;;;1.70;0.70;;;;;;;18.55;61.92;94816.16;10506230;28;20047;-34
2022/09/28 06:49:03;;;;;;;1.70;0.52;;;;;;;18.53;62.06;94838.19;10502318;28;20036;-31
2022/09/28 06:54:39;;;;;;;4.50;0.90;;;;;;;18.51;62.39;94830.63;10440974;28;20036;-31
2022/09/28 06:59:55;;;;;;;2.90;0.80;;;;;;;18.61;62.35;94876.78;10508949;28;20028;-30
2022/09/28 07:04:55;;;;;;;1.97;0.90;;;;;;;18.60;61.88;94885.28;10509041;28;20036;-31
2022/09/28 07:10:26;;;;;;;2.10;0.80;;;;;;;18.60;61.93;94908.09;10494095;28;20036;-30
2022/09/28 07:15:37;;;;;;;2.55;0.70;;;;;;;18.59;61.70;94909.78;10504849;28;20423;-30
2022/09/28 07:20:37;;;;;;;3.03;0.88;;;;;;;18.50;62.29;94930.31;10507429;28;20033;-31
2022/09/28 07:25:44;;;;;;;7.15;0.90;;;;;;;18.46;62.35;94927.91;10512468;28;20032;-31
2022/09/28 07:31:02;;;;;;;5.68;0.73;;;;;;;18.44;62.63;94939.81;10524937;28;20495;-30
2022/09/28 07:36:34;;;;;;;4.28;0.98;;;;;;;18.38;62.60;94932.38;10465268;28;20036;-31
2022/09/28 07:41:37;;;;;;;3.70;0.60;;;;;;;18.43;62.22;94944.03;10507925;28;20035;-31
2022/09/28 07:46:42;;;;;;;3.67;0.77;;;;;;;18.46;62.31;94956.63;10502192;28;20424;-31
2022/09/28 07:51:49;;;;;;;5.72;0.95;;;;;;;18.51;61.73;94961.56;10502312;28;20035;-31
2022/09/28 07:56:56;;;;;;;5.93;1.25;;;;;;;18.56;62.44;94977.44;10510356;28;20032;-32
2022/09/28 08:02:09;;;;;;;6.53;1.15;;;;;;;18.52;62.36;94963.22;10506089;28;20139;-31
2022/09/28 08:07:10;;;;;;;5.55;0.77;;;;;;;18.62;62.05;94974.75;10502729;28;20033;-31
2022/09/28 08:12:12;;;;;;;5.80;0.80;;;;;;;18.57;62.21;94994.34;10501356;28;20020;-31
2022/09/28 08:17:30;;;;;;;15.25;0.90;;;;;;;18.58;61.96;94993.47;10505975;28;20373;-30
2022/09/28 08:22:33;;;;;;;18.45;3.22;;;;;;;18.52;61.97;94993.63;10498497;28;20115;-30
2022/09/28 08:27:34;;;;;;;6.75;0.95;;;;;;;18.53;61.89;95002.91;10504682;28;20036;-31
2022/09/28 08:32:35;;;;;;;5.60;1.75;;;;;;;18.47;62.23;95003.06;10507085;28;20025;-31
2022/09/28 08:38:04;;;;;;;4.45;0.90;;;;;;;18.48;61.57;95003.03;10503993;28;20040;-30
2022/09/28 08:43:37;;;;;;;3.73;0.67;;;;;;;18.51;61.70;95018.13;10496741;28;20036;-31
2022/09/28 08:49:21;;;;;;;2.20;0.90;;;;;;;18.51;61.74;95012.25;10494627;28;20036;-32
2022/09/28 08:54:53;;;;;;;2.47;0.80;;;;;;;18.56;61.50;95018.00;10505710;28;20408;-31
2022/09/28 09:00:03;;;;;;;4.47;0.73;;;;;;;18.60;62.15;95022.94;10493986;28;20064;-31
2022/09/28 09:05:13;;;;;;;3.10;0.68;;;;;;;18.60;62.05;95029.72;10498368;28;20620;-31
2022/09/28 09:10:44;;;;;;;2.70;0.75;;;;;;;18.61;61.57;95031.41;10507013;28;20033;-31
2022/09/28 09:16:26;;;;;;;3.67;1.95;;;;;;;18.59;61.43;95043.28;10498602;28;20094;-30
2022/09/28 09:22:08;;;;;;;3.17;0.75;;;;;;;18.56;61.36;95035.75;10476866;28;20051;-31
2022/09/28 09:27:32;;;;;;;3.53;1.08;;;;;;;18.56;61.05;95030.66;10503166;28;20403;-31
2022/09/28 09:33:04;;;;;;;3.13;1.02;;;;;;;18.56;61.26;95040.81;10448040;28;20291;-31
2022/09/28 09:38:38;;;;;;;4.38;1.00;;;;;;;18.52;61.09;95034.19;10500940;28;20217;-30
2022/09/28 09:44:19;;;;;;;3.13;1.58;;;;;;;18.56;61.41;95050.94;10499671;28;20028;-30
2022/09/28 09:49:37;;;;;;;3.83;1.70;;;;;;;18.56;61.37;95054.31;10512646;28;20047;-31
2022/09/28 09:54:48;;;;;;;5.38;2.00;;;;;;;18.58;61.21;95044.16;10503313;28;20110;-31
2022/09/28 10:00:03;;;;;;;4.25;1.42;;;;;;;18.58;61.48;95041.63;10505108;28;20043;-30
2022/09/28 10:05:28;;;;;;;2.30;1.13;;;;;;;18.61;61.40;95039.00;10498968;28;20552;-33
2022/09/28 10:10:35;;;;;;;1.95;1.13;;;;;;;18.61;61.52;95033.94;10504200;28;20028;-32
2022/09/28 10:15:46;;;;;;;1.92;1.00;;;;;;;18.53;61.25;95030.78;10502895;28;20119;-30
2022/09/28 10:20:57;;;;;;;3.42;1.00;;;;;;;18.55;61.46;95045.06;10503379;28;20025;-30
2022/09/28 10:26:24;;;;;;;4.70;1.45;;;;;;;18.62;61.40;95048.25;10502850;28;20062;-31
2022/09/28 10:31:43;;;;;;;4.30;1.20;;;;;;;18.62;61.53;95033.06;10499716;28;20036;-30
2022/09/28 10:36:59;;;;;;;1.95;1.30;;;;;;;18.57;61.53;95024.75;10505457;28;20067;-31
2022/09/28 10:42:08;;;;;;;3.25;1.20;;;;;;;18.60;61.46;95034.81;10509030;28;20086;-30
2022/09/28 10:47:14;;;;;;;2.67;1.05;;;;;;;18.56;61.66;95026.44;10505220;28;20048;-30
2022/09/28 10:52:34;;;;;;;2.10;1.13;;;;;;;18.57;61.79;95027.28;10500179;28;20029;-31
2022/09/28 10:57:36;;;;;;;2.92;1.00;;;;;;;18.58;61.43;95034.03;10505104;28;20171;-31
2022/09/28 11:02:42;;;;;;;4.30;1.50;;;;;;;18.60;62.08;95032.28;10505370;28;20555;-30
2022/09/28 11:07:54;;;;;;;5.22;1.30;;;;;;;18.53;62.34;95021.47;10501920;28;20036;-32
2022/09/28 11:13:00;;;;;;;3.42;1.38;;;;;;;18.62;62.31;95023.75;10508855;28;20031;-31
2022/09/28 11:18:30;;;;;;;3.03;1.17;;;;;;;18.51;61.51;95024.91;10501898;28;20048;-32
2022/09/28 11:23:31;;;;;;;3.75;1.13;;;;;;;18.60;62.10;95022.13;10507453;28;20055;-30
2022/09/28 11:28:40;;;;;;;3.55;1.90;;;;;;;18.51;61.51;95022.38;10504017;28;20044;-30
2022/09/28 11:33:47;;;;;;;4.20;1.83;;;;;;;18.53;62.21;95026.53;10504609;28;20082;-30
2022/09/28 11:39:58;;;;;;;8.23;2.90;;;;;;;18.51;62.24;95022.38;10486184;28;20092;-32
2022/09/28 11:45:23;;;;;;;12.50;4.15;;;;;;;18.52;62.23;95027.41;10502410;28;20048;-30
2022/09/28 11:50:52;;;;;;;17.92;4.75;;;;;;;18.51;62.28;95022.38;10507376;28;20056;-32
2022/09/28 11:56:04;;;;;;;8.43;3.28;;;;;;;18.47;62.02;95021.63;10520080;28;20702;-31
2022/09/28 12:01:20;;;;;;;8.57;2.50;;;;;;;18.51;61.85;95024.91;10514213;28;20032;-31
2022/09/28 12:06:51;;;;;;;12.23;5.28;;;;;;;18.57;63.19;95017.16;10499006;28;20123;-31
2022/09/28 12:12:00;;;;;;;12.23;5.60;;;;;;;18.56;64.08;95010.41;10494743;28;20496;-30
2022/09/28 12:17:31;;;;;;;10.00;3.92;;;;;;;18.58;63.09;95008.69;10498355;28;20420;-31
2022/09/28 12:22:39;;;;;;;12.57;6.03;;;;;;;18.57;63.14;95007.03;10513132;28;20036;-31
2022/09/28 12:27:51;;;;;;;11.13;5.78;;;;;;;18.54;62.69;95013.00;10502770;28;20438;-31
2022/09/28 12:32:59;;;;;;;11.85;5.60;;;;;;;18.51;62.45;95012.25;10499493;28;20096;-30
2022/09/28 12:38:23;;;;;;;12.07;5.72;;;;;;;18.49;62.52;95008.94;10506360;28;20064;-31
2022/09/28 12:43:32;;;;;;;13.23;5.80;;;;;;;18.50;62.64;95020.72;10502590;28;20442;-30
2022/09/28 12:48:47;;;;;;;9.60;4.70;;;;;;;18.40;61.53;95010.00;10512289;28;20039;-30
2022/09/28 12:54:25;;;;;;;12.57;4.95;;;;;;;18.44;62.03;95025.94;10497541;28;20507;-31
2022/09/28 12:59:31;;;;;;;9.63;4.80;;;;;;;18.39;62.38;95032.81;10518118;28;20395;-30
2022/09/28 13:04:58;;;;;;;12.32;5.88;;;;;;;18.39;62.70;95032.81;10511583;28;20032;-30
2022/09/28 13:10:31;;;;;;;13.98;6.00;;;;;;;18.42;63.77;95032.78;10504329;28;20503;-30
2022/09/28 13:15:42;;;;;;;12.75;6.47;;;;;;;18.48;64.06;95035.13;10511812;28;20119;-31
2022/09/28 13:21:14;;;;;;;9.05;5.25;;;;;;;18.52;63.51;95049.38;10514307;28;20040;-30
2022/09/28 13:26:24;;;;;;;12.73;6.10;;;;;;;18.52;63.16;95039.25;10497687;28;20080;-31
2022/09/28 13:31:29;;;;;;;12.73;5.80;;;;;;;18.50;63.02;95025.78;10507379;28;20055;-31
2022/09/28 13:36:30;;;;;;;10.25;5.50;;;;;;;18.53;62.97;95026.53;10507257;28;20514;-30
2022/09/28 13:41:36;;;;;;;9.68;4.80;;;;;;;18.51;62.25;95027.44;10507676;28;20047;-31
2022/09/28 13:47:01;;;;;;;11.68;5.40;;;;;;;18.54;62.77;95027.34;10504876;28;20043;-30
2022/09/28 13:52:05;;;;;;;12.70;5.68;;;;;;;18.39;63.16;95007.50;10505614;28;20044;-31
2022/09/28 13:57:22;;;;;;;10.45;4.65;;;;;;;18.37;63.57;95019.38;10505642;28;20043;-31
2022/09/28 14:02:34;;;;;;;19.25;6.10;;;;;;;18.39;63.37;95031.13;10503694;28;20047;-30
2022/09/28 14:07:34;;;;;;;8.52;5.10;;;;;;;18.36;63.41;95041.38;10511911;28;20127;-31
2022/09/28 14:12:34;;;;;;;13.60;6.25;;;;;;;18.49;64.33;95035.09;10501630;28;20489;-31
2022/09/28 14:18:07;;;;;;;12.68;6.03;;;;;;;18.49;64.59;95040.16;10504771;28;20386;-30
2022/09/28 14:23:45;;;;;;;12.48;5.40;;;;;;;18.49;63.50;95040.16;10515398;28;20077;-31
2022/09/28 14:29:01;;;;;;;11.32;5.85;;;;;;;18.40;63.32;95050.53;10505034;28;20101;-32
2022/09/28 14:34:02;;;;;;;11.23;5.10;;;;;;;18.37;63.49;95054.84;10500191;28;20031;-31
2022/09/28 14:44:21;;;;;;;9.25;5.25;;;;;;;18.35;63.85;95059.94;10502414;28;20040;-32
2022/09/28 14:49:34;;;;;;;8.57;4.50;;;;;;;18.35;63.59;95076.88;10511288;28;20451;-31
2022/09/28 14:54:44;;;;;;;8.75;4.60;;;;;;;18.33;63.32;95076.06;10508049;28;20044;-31
2022/09/28 14:59:45;;;;;;;9.35;4.85;;;;;;;18.32;63.48;95067.63;10511479;28;20031;-30
2022/09/28 15:04:53;;;;;;;9.18;4.78;;;;;;;18.32;63.50;95067.63;10507137;28;20044;-32
2022/09/28 15:09:56;;;;;;;8.20;3.72;;;;;;;18.34;63.38;95070.13;10507491;28;20070;-31
2022/09/28 15:15:07;;;;;;;12.57;4.72;;;;;;;18.45;63.83;95078.28;10512458;28;20059;-30
2022/09/28 15:20:30;;;;;;;7.18;4.22;;;;;;;18.49;63.69;95069.75;10507391;28;20040;-30
2022/09/28 15:25:31;;;;;;;7.00;4.22;;;;;;;18.50;63.31;95077.28;10510189;28;20039;-31
2022/09/28 15:30:34;;;;;;;6.45;4.10;;;;;;;18.43;63.12;95069.91;10506655;28;20059;-30
2022/09/28 15:35:34;;;;;;;6.82;3.95;;;;;;;18.39;63.13;95068.28;10508518;28;20047;-30
2022/09/28 15:40:37;;;;;;;6.13;3.92;;;;;;;18.34;63.38;95078.53;10506015;28;20451;-31
2022/09/28 15:45:39;;;;;;;8.45;3.78;;;;;;;18.31;63.48;95076.09;10502083;28;20033;-31
2022/09/28 15:50:55;;;;;;;8.20;4.38;;;;;;;18.32;63.42;95082.03;10506951;28;20094;-34
2022/09/28 15:56:04;;;;;;;7.47;4.10;;;;;;;18.32;63.30;95077.75;10503444;28;20036;-31
2022/09/28 16:01:30;;;;;;;8.38;3.80;;;;;;;18.29;63.50;95076.97;10508956;28;20045;-31
2022/09/28 16:06:31;;;;;;;7.30;4.00;;;;;;;18.33;62.61;95084.50;10495244;28;20131;-32
2022/09/28 16:11:38;;;;;;;7.17;4.23;;;;;;;18.37;63.13;95085.25;10501442;28;20468;-30
2022/09/28 16:16:48;;;;;;;10.63;4.78;;;;;;;18.47;63.52;95082.44;10508403;28;20290;-30
2022/09/28 16:21:51;;;;;;;6.97;4.43;;;;;;;18.48;64.14;95080.72;10513705;28;20045;-31
2022/09/28 16:27:18;;;;;;;7.32;4.53;;;;;;;18.42;64.13;95079.19;10504695;28;20028;-31
2022/09/28 16:32:25;;;;;;;7.10;4.15;;;;;;;18.39;63.65;95088.56;10491375;28;20118;-31
2022/09/28 16:37:30;;;;;;;7.82;4.30;;;;;;;18.33;63.42;95088.75;10504157;28;20032;-31
2022/09/28 16:42:31;;;;;;;10.05;4.15;;;;;;;18.33;63.61;95089.56;10503679;28;20040;-32
2022/09/28 16:47:35;;;;;;;8.27;4.70;;;;;;;18.31;63.45;95090.47;10505535;28;20036;-31
2022/09/28 16:57:54;;;;;;;9.20;4.03;;;;;;;18.38;63.49;95097.03;10505558;28;20094;-30
2022/09/28 17:02:56;;;;;;;14.93;4.85;;;;;;;18.41;63.68;95097.78;10505284;28;20554;-31
2022/09/28 17:08:02;;;;;;;9.27;4.75;;;;;;;18.45;63.62;95103.63;10487818;28;20043;-31
2022/09/28 17:13:03;;;;;;;7.60;4.20;;;;;;;18.45;63.26;95106.16;10497008;28;20539;-30
2022/09/28 17:18:04;;;;;;;11.07;4.57;;;;;;;18.32;63.29;95090.44;10503051;28;20115;-30
2022/09/28 17:23:04;;;;;;;10.50;5.35;;;;;;;18.54;63.77;95113.50;10521185;28;20294;-31
2022/09/28 17:28:19;;;;;;;12.45;4.55;;;;;;;18.60;63.27;95119.25;10499834;28;20504;-30
2022/09/28 17:33:20;;;;;;;7.60;4.13;;;;;;;18.57;62.77;95121.06;10506140;28;20439;-31
2022/09/28 17:38:20;;;;;;;6.97;3.85;;;;;;;18.56;61.91;95116.84;10496756;28;20161;-30
2022/09/28 17:43:21;;;;;;;10.77;6.07;;;;;;;18.62;62.37;95126.81;10518069;28;20043;-31
2022/09/28 17:48:22;;;;;;;6.47;3.50;;;;;;;18.55;60.71;95126.16;10507597;28;20035;-30
2022/09/28 17:53:22;;;;;;;6.20;3.75;;;;;;;18.52;61.96;95121.19;10498052;28;20548;-31
2022/09/28 17:58:22;;;;;;;5.23;3.40;;;;;;;18.48;61.84;95128.88;10506951;28;20053;-30
2022/09/28 18:03:24;;;;;;;7.83;4.23;;;;;;;18.53;61.91;95137.19;10502405;28;20367;-31
2022/09/28 18:08:24;;;;;;;20.95;4.40;;;;;;;18.37;63.92;95146.03;10504548;28;20298;-30
2022/09/28 18:13:24;;;;;;;9.80;3.83;;;;;;;18.46;63.10;95143.28;10503937;28;20035;-31
2022/09/28 18:18:25;;;;;;;10.17;4.03;;;;;;;18.53;62.73;95158.31;10495386;28;20047;-30
2022/09/28 18:23:25;;;;;;;6.47;3.55;;;;;;;18.60;62.46;95164.06;10505595;28;20075;-30
2022/09/28 18:28:26;;;;;;;5.57;3.40;;;;;;;18.60;61.93;95174.19;10515278;28;20036;-32
2022/09/28 18:33:26;;;;;;;5.90;2.87;;;;;;;18.59;61.70;95177.59;10507297;28;20036;-31
2022/09/28 18:38:26;;;;;;;4.60;2.90;;;;;;;18.53;61.58;95168.47;10502742;28;20028;-31
2022/09/28 18:43:27;;;;;;;6.53;3.10;;;;;;;18.54;61.64;95180.25;10505701;28;20031;-31
2022/09/28 18:48:28;;;;;;;7.77;3.80;;;;;;;18.52;61.48;95183.69;10509707;28;20049;-30
2022/09/28 18:53:33;;;;;;;5.32;2.97;;;;;;;18.53;61.07;95183.66;10507402;28;20043;-31
2022/09/28 18:58:35;;;;;;;6.95;2.72;;;;;;;18.51;61.39;95190.44;10507353;28;20119;-31
2022/09/28 19:03:36;;;;;;;4.10;2.30;;;;;;;18.50;61.20;95193.84;10506028;28;20040;-31
2022/09/28 19:08:36;;;;;;;5.57;2.63;;;;;;;18.46;60.42;95191.44;10518226;28;20039;-31
2022/09/28 19:13:36;;;;;;;6.90;3.93;;;;;;;18.52;61.49;95203.97;10513684;28;20054;-31
2022/09/28 19:18:38;;;;;;;8.77;3.30;;;;;;;18.54;61.93;95202.22;10500683;28;20281;-31
2022/09/28 19:23:38;;;;;;;4.97;2.47;;;;;;;18.54;60.70;95207.28;10495442;28;20427;-32
2022/09/28 19:28:39;;;;;;;3.88;2.03;;;;;;;18.41;59.60;95208.47;10513903;28;20154;-30
2022/09/28 19:33:39;;;;;;;5.87;2.20;;;;;;;18.48;60.24;95215.88;10501570;28;20020;-31
2022/09/28 19:38:40;;;;;;;4.75;2.42;;;;;;;18.51;60.22;95209.91;10508461;28;20036;-30
2022/09/28 19:43:42;;;;;;;5.25;2.17;;;;;;;18.49;59.71;95209.13;10523982;28;20132;-30
2022/09/28 19:48:42;;;;;;;4.30;2.17;;;;;;;18.57;60.26;95219.91;10530838;28;20404;-31
2022/09/28 19:53:43;;;;;;;4.93;2.10;;;;;;;18.60;59.39;95219.81;10503033;28;20035;-31
2022/09/28 19:58:43;;;;;;;3.50;1.90;;;;;;;18.65;59.38;95207.84;10509470;28;20094;-30
2022/09/28 20:03:44;;;;;;;4.03;2.00;;;;;;;18.65;60.18;95207.84;10506187;28;20051;-31
2022/09/28 20:08:44;;;;;;;3.87;2.40;;;;;;;18.59;60.92;95213.91;10514558;28;20032;-31
2022/09/28 20:13:45;;;;;;;6.23;2.37;;;;;;;18.67;61.19;95211.19;10507189;28;20278;-31
2022/09/28 20:18:50;;;;;;;5.57;2.47;;;;;;;18.67;60.10;95208.66;10511961;28;20036;-31
2022/09/28 20:23:52;;;;;;;3.45;2.15;;;;;;;18.67;59.99;95206.13;10507459;28;20572;-30
2022/09/28 20:28:53;;;;;;;5.35;2.42;;;;;;;18.64;60.34;95203.66;10504263;28;20036;-31
2022/09/28 20:33:55;;;;;;;3.35;2.38;;;;;;;18.64;60.23;95201.13;10508953;28;20054;-31
2022/09/28 20:38:57;;;;;;;5.35;2.42;;;;;;;18.61;61.03;95201.19;10508952;28;20033;-31
2022/09/28 20:43:58;;;;;;;4.95;2.10;;;;;;;18.62;61.15;95197.78;10507882;28;20079;-30
2022/09/28 20:48:58;;;;;;;3.08;2.17;;;;;;;18.60;61.24;95200.34;10508794;28;20059;-33
2022/09/28 20:53:59;;;;;;;5.95;2.85;;;;;;;18.58;61.46;95201.28;10499269;28;20042;-30
2022/09/28 20:58:59;;;;;;;3.40;2.10;;;;;;;18.59;61.62;95202.94;10509297;28;20728;-30
2022/09/28 21:04:01;;;;;;;3.72;1.90;;;;;;;18.62;60.65;95202.88;10503565;28;20297;-31
2022/09/28 21:09:03;;;;;;;4.10;2.08;;;;;;;18.64;61.49;95206.19;10513146;28;20039;-31
2022/09/28 21:14:06;;;;;;;6.53;2.35;;;;;;;18.64;60.91;95201.97;10501587;28;20086;-31
2022/09/28 21:19:07;;;;;;;4.93;2.13;;;;;;;18.61;61.78;95201.19;10501839;28;20086;-31
2022/09/28 21:24:08;;;;;;;5.03;2.50;;;;;;;18.57;61.79;95199.63;10501199;28;20048;-30
2022/09/28 21:29:13;;;;;;;3.45;2.17;;;;;;;18.53;61.84;95183.66;10509348;28;20504;-31
2022/09/28 21:34:18;;;;;;;3.13;2.25;;;;;;;18.56;61.76;95182.72;10503584;28;20051;-30
2022/09/28 21:39:19;;;;;;;4.85;2.38;;;;;;;18.53;62.01;95187.88;10504781;28;20466;-30
2022/09/28 21:44:19;;;;;;;4.63;2.63;;;;;;;18.54;61.92;95187.00;10500745;28;20035;-30
2022/09/28 21:49:19;;;;;;;5.07;2.30;;;;;;;18.43;62.08;95166.19;10505577;28;20043;-31
2022/09/28 21:54:20;;;;;;;4.20;2.00;;;;;;;18.52;62.12;95176.94;10500704;28;20028;-30
2022/09/28 21:59:21;;;;;;;5.10;2.45;;;;;;;18.60;62.01;95174.19;10503791;28;20114;-30
2022/09/28 22:04:21;;;;;;;4.90;2.17;;;;;;;18.59;62.56;95177.59;10501645;28;20024;-31
2022/09/28 22:09:21;;;;;;;3.03;1.97;;;;;;;18.57;61.87;95171.75;10508726;28;20043;-32
2022/09/28 22:14:22;;;;;;;3.53;1.90;;;;;;;18.51;62.29;95175.25;10498744;28;20044;-32
2022/09/28 22:19:22;;;;;;;3.27;2.07;;;;;;;18.49;62.25;95171.09;10500577;28;20294;-31
2022/09/28 22:24:23;;;;;;;4.03;1.90;;;;;;;18.43;62.37;95158.56;10502950;28;20103;-32
2022/09/28 22:29:23;;;;;;;3.25;2.13;;;;;;;18.47;62.32;95168.59;10499905;28;20407;-31
2022/09/28 22:34:26;;;;;;;6.23;2.30;;;;;;;18.47;62.52;95172.81;10502417;28;20097;-31
2022/09/28 22:39:26;;;;;;;3.72;1.75;;;;;;;18.45;62.48;95166.97;10501097;28;20781;-30
2022/09/28 22:44:26;;;;;;;4.57;1.70;;;;;;;18.45;62.56;95169.50;10496348;28;20040;-30
2022/09/28 22:49:27;;;;;;;5.20;2.23;;;;;;;18.47;62.47;95173.66;10503416;28;20050;-31
2022/09/28 22:54:27;;;;;;;5.93;2.10;;;;;;;18.55;62.47;95158.25;10501645;28;20110;-31
2022/09/28 22:59:28;;;;;;;3.93;2.00;;;;;;;18.56;62.34;95153.16;10502933;28;20044;-30
2022/09/28 23:04:29;;;;;;;3.20;1.77;;;;;;;18.57;62.25;95159.06;10502056;28;20777;-30
2022/09/28 23:09:30;;;;;;;4.15;1.75;;;;;;;18.51;62.32;95164.28;10515124;28;20451;-31
2022/09/28 23:14:30;;;;;;;3.37;1.87;;;;;;;18.48;62.77;95160.13;10504878;28;20033;-31
2022/09/28 23:19:30;;;;;;;2.70;1.70;;;;;;;18.48;62.59;95164.34;10507035;28;20056;-31
2022/09/28 23:24:31;;;;;;;2.57;1.70;;;;;;;18.46;62.70;95155.94;10508014;28;20033;-31
2022/09/28 23:29:31;;;;;;;6.10;2.20;;;;;;;18.48;62.57;95154.22;10507055;28;20032;-30
2022/09/28 23:34:32;;;;;;;3.88;2.30;;;;;;;18.44;62.94;95142.50;10512880;28;20499;-31
2022/09/28 23:39:32;;;;;;;3.83;2.03;;;;;;;18.43;62.81;95128.16;10511298;28;20039;-30
2022/09/28 23:44:32;;;;;;;3.63;2.10;;;;;;;18.43;62.99;95131.53;10505905;28;20552;-32
2022/09/28 23:49:33;;;;;;;3.73;1.70;;;;;;;18.55;62.61;95130.38;10512633;28;20279;-31
2022/09/28 23:54:33;;;;;;;2.87;1.77;;;;;;;18.58;62.66;95130.31;10510430;28;20109;-31
2022/09/28 23:59:33;;;;;;;4.77;1.80;;;;;;;18.55;62.47;95121.09;10512814;28;20059;-31
